createdAt,value
2023-05-09T00:00:02.017Z,1026.6
2023-05-09T00:01:02.042Z,1026.7
2023-05-09T00:03:01.834Z,1026.6
2023-05-09T00:04:01.786Z,1026.6
2023-05-09T00:05:01.830Z,1026.7
2023-05-09T00:06:02.633Z,1026.6
2023-05-09T00:07:02.478Z,1026.7
2023-05-09T00:08:02.547Z,1026.6
2023-05-09T00:09:02.410Z,1026.6
2023-05-09T00:10:02.461Z,1026.6
2023-05-09T00:11:02.290Z,1026.6
2023-05-09T00:12:02.383Z,1026.6
2023-05-09T00:13:02.714Z,1026.6
2023-05-09T00:14:02.356Z,1026.6
2023-05-09T00:15:02.469Z,1026.6
2023-05-09T00:16:02.658Z,1026.6
2023-05-09T00:17:02.400Z,1026.5
2023-05-09T00:18:02.550Z,1026.6
2023-05-09T00:19:02.338Z,1026.6
2023-05-09T00:20:02.191Z,1026.5
2023-05-09T00:21:02.261Z,1026.6
2023-05-09T00:22:02.262Z,1026.6
2023-05-09T00:23:02.144Z,1026.6
2023-05-09T00:24:02.179Z,1026.6
2023-05-09T00:25:02.087Z,1026.6
2023-05-09T00:26:02.120Z,1026.6
2023-05-09T00:27:02.104Z,1026.5
2023-05-09T00:28:01.963Z,1026.6
2023-05-09T00:29:01.883Z,1026.5
2023-05-09T00:30:01.893Z,1026.5
2023-05-09T00:31:01.768Z,1026.5
2023-05-09T00:32:01.807Z,1026.5
2023-05-09T00:33:01.742Z,1026.5
2023-05-09T00:34:02.632Z,1026.5
2023-05-09T00:35:02.583Z,1026.5
2023-05-09T00:36:02.589Z,1026.5
2023-05-09T00:37:02.455Z,1026.5
2023-05-09T00:38:02.574Z,1026.4
2023-05-09T00:39:02.414Z,1026.4
2023-05-09T00:40:02.502Z,1026.4
2023-05-09T00:41:02.337Z,1026.4
2023-05-09T00:42:02.382Z,1026.4
2023-05-09T00:43:02.351Z,1026.4
2023-05-09T00:44:02.318Z,1026.4
2023-05-09T00:45:02.345Z,1026.4
2023-05-09T00:46:02.542Z,1026.4
2023-05-09T00:47:02.160Z,1026.4
2023-05-09T00:48:02.347Z,1026.4
2023-05-09T00:49:02.089Z,1026.4
2023-05-09T00:50:02.076Z,1026.4
2023-05-09T00:51:01.939Z,1026.3
2023-05-09T00:52:01.994Z,1026.4
2023-05-09T00:53:01.837Z,1026.3
2023-05-09T00:54:01.901Z,1026.3
2023-05-09T00:55:01.745Z,1026.3
2023-05-09T00:56:01.797Z,1026.3
2023-05-09T00:57:01.682Z,1026.2
2023-05-09T00:58:01.720Z,1026.3
2023-05-09T00:59:02.580Z,1026.2
2023-05-09T01:00:02.525Z,1026.3
2023-05-09T01:01:01.805Z,1026.2
2023-05-09T01:02:02.467Z,1026.3
2023-05-09T01:03:02.677Z,1026.4
2023-05-09T01:04:02.450Z,1026.3
2023-05-09T01:05:02.403Z,1026.4
2023-05-09T01:06:02.484Z,1026.3
2023-05-09T01:07:02.413Z,1026.3
2023-05-09T01:08:02.449Z,1026.3
2023-05-09T01:09:02.376Z,1026.2
2023-05-09T01:10:02.269Z,1026.2
2023-05-09T01:11:02.324Z,1026.3
2023-05-09T01:12:02.271Z,1026.2
2023-05-09T01:13:02.420Z,1026.2
2023-05-09T01:14:02.199Z,1026.2
2023-05-09T01:15:02.263Z,1026.2
2023-05-09T01:16:02.141Z,1026.2
2023-05-09T01:17:02.090Z,1026.3
2023-05-09T01:18:02.105Z,1026.2
2023-05-09T01:19:01.896Z,1026.2
2023-05-09T01:20:02.064Z,1026.2
2023-05-09T01:21:01.791Z,1026.2
2023-05-09T01:22:01.786Z,1026.2
2023-05-09T01:23:01.696Z,1026.3
2023-05-09T01:24:01.821Z,1026.3
2023-05-09T01:25:01.546Z,1026.3
2023-05-09T01:26:02.635Z,1026.3
2023-05-09T01:27:02.557Z,1026.2
2023-05-09T01:28:02.660Z,1026.3
2023-05-09T01:29:02.602Z,1026.2
2023-05-09T01:30:02.670Z,1026.2
2023-05-09T01:31:01.759Z,1026.2
2023-05-09T01:32:02.513Z,1026.2
2023-05-09T01:33:02.705Z,1026.2
2023-05-09T01:34:02.479Z,1026.2
2023-05-09T01:35:02.555Z,1026.2
2023-05-09T01:36:02.365Z,1026.2
2023-05-09T01:37:02.478Z,1026.2
2023-05-09T01:38:02.327Z,1026.2
2023-05-09T01:39:02.354Z,1026.2
2023-05-09T01:40:02.317Z,1026.2
2023-05-09T01:41:02.221Z,1026.2
2023-05-09T01:42:02.326Z,1026.2
2023-05-09T01:43:02.286Z,1026.2
2023-05-09T01:44:02.232Z,1026.2
2023-05-09T01:45:02.148Z,1026.1
2023-05-09T01:46:02.006Z,1026.1
2023-05-09T01:47:01.959Z,1026.1
2023-05-09T01:48:02.010Z,1026.1
2023-05-09T01:49:01.718Z,1026.1
2023-05-09T01:50:01.736Z,1026.1
2023-05-09T01:51:01.526Z,1026.1
2023-05-09T01:52:02.587Z,1026.1
2023-05-09T01:53:02.554Z,1026.1
2023-05-09T01:54:02.626Z,1026.1
2023-05-09T01:55:02.731Z,1026.1
2023-05-09T01:56:01.689Z,1026.1
2023-05-09T01:57:02.730Z,1026.1
2023-05-09T01:58:02.594Z,1026.1
2023-05-09T01:59:02.619Z,1026.1
2023-05-09T02:00:02.505Z,1026.1
2023-05-09T02:01:02.762Z,1026.1
2023-05-09T02:02:02.404Z,1026.1
2023-05-09T02:03:02.519Z,1026
2023-05-09T02:04:02.369Z,1026
2023-05-09T02:05:02.388Z,1026.1
2023-05-09T02:06:02.386Z,1026
2023-05-09T02:07:02.257Z,1026
2023-05-09T02:08:02.255Z,1026
2023-05-09T02:09:02.266Z,1026
2023-05-09T02:10:02.130Z,1026
2023-05-09T02:11:02.175Z,1026
2023-05-09T02:12:02.069Z,1026
2023-05-09T02:13:02.209Z,1026
2023-05-09T02:14:01.957Z,1026
2023-05-09T02:15:02.114Z,1026
2023-05-09T02:16:01.887Z,1026
2023-05-09T02:17:02.078Z,1026
2023-05-09T02:18:02.130Z,1026
2023-05-09T02:19:01.801Z,1026
2023-05-09T02:20:01.970Z,1026
2023-05-09T02:21:01.810Z,1026
2023-05-09T02:22:01.647Z,1026
2023-05-09T02:23:01.606Z,1026
2023-05-09T02:24:02.660Z,1026.1
2023-05-09T02:25:02.548Z,1026.1
2023-05-09T02:26:02.659Z,1026
2023-05-09T02:27:02.565Z,1026
2023-05-09T02:28:02.597Z,1026
2023-05-09T02:29:02.495Z,1026
2023-05-09T02:30:02.550Z,1026
2023-05-09T02:31:02.490Z,1026
2023-05-09T02:32:02.584Z,1026
2023-05-09T02:33:02.784Z,1026
2023-05-09T02:34:02.592Z,1026
2023-05-09T02:35:02.659Z,1025.9
2023-05-09T02:36:02.577Z,1025.9
2023-05-09T02:37:02.600Z,1026
2023-05-09T02:38:02.571Z,1026
2023-05-09T02:39:02.004Z,1025.9
2023-05-09T02:40:01.595Z,1026
2023-05-09T02:41:02.658Z,1026
2023-05-09T02:42:01.590Z,1025.9
2023-05-09T02:43:02.648Z,1025.9
2023-05-09T02:44:02.562Z,1025.9
2023-05-09T02:45:02.675Z,1025.9
2023-05-09T02:46:02.711Z,1025.9
2023-05-09T02:48:02.762Z,1025.9
2023-05-09T02:49:02.549Z,1025.9
2023-05-09T02:50:02.562Z,1025.9
2023-05-09T02:51:02.443Z,1025.9
2023-05-09T02:52:02.517Z,1025.9
2023-05-09T02:53:02.410Z,1025.9
2023-05-09T02:54:02.557Z,1025.9
2023-05-09T02:55:02.522Z,1025.9
2023-05-09T02:56:02.429Z,1025.8
2023-05-09T02:57:02.370Z,1025.9
2023-05-09T02:58:15.388Z,1025.9
2023-05-09T02:59:01.983Z,1025.9
2023-05-09T03:00:03.831Z,1025.9
2023-05-09T03:01:01.675Z,1025.9
2023-05-09T03:02:01.864Z,1025.9
2023-05-09T03:03:02.110Z,1025.9
2023-05-09T03:04:01.786Z,1026
2023-05-09T03:05:01.844Z,1026
2023-05-09T03:06:01.765Z,1025.9
2023-05-09T03:07:01.596Z,1026
2023-05-09T03:08:02.652Z,1025.9
2023-05-09T03:09:01.558Z,1025.9
2023-05-09T03:10:02.639Z,1025.9
2023-05-09T03:11:02.574Z,1025.9
2023-05-09T03:12:02.608Z,1026
2023-05-09T03:13:02.710Z,1025.9
2023-05-09T03:14:02.634Z,1025.9
2023-05-09T03:15:02.619Z,1025.9
2023-05-09T03:16:02.696Z,1025.9
2023-05-09T03:17:02.358Z,1025.9
2023-05-09T03:18:02.593Z,1025.9
2023-05-09T03:19:02.361Z,1025.9
2023-05-09T03:20:04.861Z,1025.9
2023-05-09T03:21:02.467Z,1026
2023-05-09T03:22:02.570Z,1025.9
2023-05-09T03:23:02.487Z,1025.9
2023-05-09T03:24:02.544Z,1025.9
2023-05-09T03:25:02.478Z,1026
2023-05-09T03:26:02.513Z,1026
2023-05-09T03:27:02.369Z,1026
2023-05-09T03:28:02.430Z,1026
2023-05-09T03:29:02.324Z,1025.9
2023-05-09T03:30:02.416Z,1025.9
2023-05-09T03:31:02.417Z,1026
2023-05-09T03:33:02.372Z,1026
2023-05-09T03:34:02.054Z,1026
2023-05-09T03:35:02.088Z,1025.9
2023-05-09T03:36:01.902Z,1025.9
2023-05-09T03:37:01.937Z,1025.9
2023-05-09T03:38:01.777Z,1025.9
2023-05-09T03:39:01.829Z,1025.9
2023-05-09T03:40:01.723Z,1025.9
2023-05-09T03:41:01.780Z,1025.9
2023-05-09T03:42:01.675Z,1025.8
2023-05-09T03:43:02.672Z,1025.8
2023-05-09T03:44:02.553Z,1025.8
2023-05-09T03:45:02.639Z,1025.8
2023-05-09T03:46:02.547Z,1025.9
2023-05-09T03:47:02.579Z,1025.8
2023-05-09T03:48:02.273Z,1025.9
2023-05-09T03:49:02.066Z,1025.9
2023-05-09T03:50:02.124Z,1025.9
2023-05-09T03:51:02.008Z,1025.9
2023-05-09T03:52:01.985Z,1025.9
2023-05-09T03:53:01.890Z,1025.9
2023-05-09T03:54:01.894Z,1025.9
2023-05-09T03:55:01.832Z,1025.8
2023-05-09T03:56:01.788Z,1025.9
2023-05-09T03:57:01.671Z,1025.9
2023-05-09T03:58:01.723Z,1025.9
2023-05-09T03:59:01.543Z,1025.9
2023-05-09T04:00:02.748Z,1025.9
2023-05-09T04:01:01.604Z,1025.9
2023-05-09T04:02:01.893Z,1025.9
2023-05-09T04:03:01.918Z,1026
2023-05-09T04:04:02.849Z,1026
2023-05-09T04:05:02.655Z,1025.9
2023-05-09T04:06:02.666Z,1026
2023-05-09T04:07:01.615Z,1025.9
2023-05-09T04:08:02.621Z,1025.9
2023-05-09T04:09:02.548Z,1025.9
2023-05-09T04:10:02.615Z,1025.9
2023-05-09T04:11:02.549Z,1025.9
2023-05-09T04:12:02.575Z,1025.9
2023-05-09T04:13:02.564Z,1025.9
2023-05-09T04:14:02.583Z,1025.9
2023-05-09T04:15:02.436Z,1025.9
2023-05-09T04:16:02.637Z,1025.9
2023-05-09T04:17:03.013Z,1025.9
2023-05-09T04:18:01.887Z,1025.9
2023-05-09T04:19:01.647Z,1025.9
2023-05-09T04:20:01.718Z,1025.9
2023-05-09T04:21:02.598Z,1025.9
2023-05-09T04:22:02.530Z,1025.9
2023-05-09T04:23:02.655Z,1025.9
2023-05-09T04:24:02.559Z,1025.9
2023-05-09T04:25:02.640Z,1025.9
2023-05-09T04:26:02.551Z,1025.9
2023-05-09T04:27:02.600Z,1025.9
2023-05-09T04:28:02.586Z,1025.9
2023-05-09T04:29:02.584Z,1025.9
2023-05-09T04:30:02.468Z,1025.8
2023-05-09T04:31:02.828Z,1025.8
2023-05-09T04:32:02.975Z,1025.8
2023-05-09T04:33:01.861Z,1025.9
2023-05-09T04:34:02.730Z,1025.9
2023-05-09T04:35:01.630Z,1025.8
2023-05-09T04:36:02.688Z,1025.8
2023-05-09T04:37:02.608Z,1025.9
2023-05-09T04:38:02.551Z,1025.9
2023-05-09T04:39:02.551Z,1025.9
2023-05-09T04:40:02.615Z,1025.9
2023-05-09T04:41:02.571Z,1025.9
2023-05-09T04:42:02.650Z,1026
2023-05-09T04:43:02.582Z,1025.9
2023-05-09T04:44:02.641Z,1025.8
2023-05-09T04:45:02.503Z,1025.8
2023-05-09T04:46:02.673Z,1025.8
2023-05-09T04:47:02.579Z,1025.8
2023-05-09T04:48:01.790Z,1025.8
2023-05-09T04:49:02.603Z,1025.9
2023-05-09T04:50:02.500Z,1025.8
2023-05-09T04:51:02.466Z,1025.7
2023-05-09T04:52:02.495Z,1025.8
2023-05-09T04:53:02.539Z,1025.8
2023-05-09T04:54:02.423Z,1025.8
2023-05-09T04:55:02.497Z,1025.7
2023-05-09T04:56:02.468Z,1025.7
2023-05-09T04:57:19.106Z,1025.8
2023-05-09T04:58:01.807Z,1025.8
2023-05-09T04:59:01.835Z,1025.8
2023-05-09T05:00:03.227Z,1025.8
2023-05-09T05:01:02.051Z,1025.8
2023-05-09T05:03:02.797Z,1025.8
2023-05-09T05:04:02.526Z,1025.8
2023-05-09T05:05:12.979Z,1025.8
2023-05-09T05:06:01.626Z,1025.8
2023-05-09T05:07:02.602Z,1025.8
2023-05-09T05:08:02.527Z,1025.8
2023-05-09T05:09:02.616Z,1025.8
2023-05-09T05:10:02.579Z,1025.8
2023-05-09T05:11:02.577Z,1025.8
2023-05-09T05:12:09.514Z,1025.8
2023-05-09T05:13:02.544Z,1025.8
2023-05-09T05:14:02.549Z,1025.9
2023-05-09T05:15:02.420Z,1025.8
2023-05-09T05:16:02.394Z,1025.9
2023-05-09T05:17:02.440Z,1025.9
2023-05-09T05:18:02.529Z,1025.8
2023-05-09T05:19:02.458Z,1025.8
2023-05-09T05:20:02.342Z,1025.8
2023-05-09T05:21:02.277Z,1025.9
2023-05-09T05:22:02.363Z,1025.8
2023-05-09T05:23:02.286Z,1025.8
2023-05-09T05:24:02.148Z,1025.7
2023-05-09T05:25:02.227Z,1025.8
2023-05-09T05:26:02.211Z,1025.7
2023-05-09T05:27:02.065Z,1025.8
2023-05-09T05:28:02.065Z,1025.7
2023-05-09T05:29:01.874Z,1025.8
2023-05-09T05:30:01.998Z,1025.7
2023-05-09T05:31:01.775Z,1025.8
2023-05-09T05:32:02.240Z,1025.8
2023-05-09T05:33:02.357Z,1025.8
2023-05-09T05:34:02.021Z,1025.7
2023-05-09T05:35:01.989Z,1025.7
2023-05-09T05:36:01.828Z,1025.8
2023-05-09T05:37:01.848Z,1025.7
2023-05-09T05:38:01.731Z,1025.7
2023-05-09T05:39:01.785Z,1025.7
2023-05-09T05:40:01.705Z,1025.8
2023-05-09T05:41:01.703Z,1025.8
2023-05-09T05:42:01.610Z,1025.7
2023-05-09T05:43:02.619Z,1025.8
2023-05-09T05:44:02.610Z,1025.8
2023-05-09T05:45:02.626Z,1025.8
2023-05-09T05:46:02.648Z,1025.7
2023-05-09T05:47:02.542Z,1025.8
2023-05-09T05:48:03.006Z,1025.7
2023-05-09T05:49:01.697Z,1025.7
2023-05-09T05:50:01.704Z,1025.7
2023-05-09T05:51:02.636Z,1025.8
2023-05-09T05:52:02.566Z,1025.7
2023-05-09T05:53:02.678Z,1025.7
2023-05-09T05:54:02.595Z,1025.7
2023-05-09T05:55:01.656Z,1025.7
2023-05-09T05:56:02.633Z,1025.7
2023-05-09T05:57:02.459Z,1025.6
2023-05-09T05:58:02.585Z,1025.6
2023-05-09T05:59:02.442Z,1025.6
2023-05-09T06:00:03.095Z,1025.6
2023-05-09T06:01:02.116Z,1025.5
2023-05-09T06:03:02.920Z,1025.5
2023-05-09T06:04:01.825Z,1025.5
2023-05-09T06:05:02.670Z,1025.6
2023-05-09T06:06:02.515Z,1025.5
2023-05-09T06:07:02.563Z,1025.6
2023-05-09T06:08:02.481Z,1025.5
2023-05-09T06:09:02.491Z,1025.5
2023-05-09T06:10:02.423Z,1025.4
2023-05-09T06:11:02.573Z,1025.5
2023-05-09T06:12:02.447Z,1025.5
2023-05-09T06:13:02.600Z,1025.5
2023-05-09T06:14:02.382Z,1025.5
2023-05-09T06:15:02.357Z,1025.5
2023-05-09T06:16:20.702Z,1025.4
2023-05-09T06:18:02.476Z,1025.5
2023-05-09T06:19:02.374Z,1025.5
2023-05-09T06:20:02.220Z,1025.4
2023-05-09T06:21:02.361Z,1025.4
2023-05-09T06:22:02.297Z,1025.5
2023-05-09T06:23:02.167Z,1025.5
2023-05-09T06:24:32.059Z,1025.4
2023-05-09T06:25:01.734Z,1025.5
2023-05-09T06:26:01.713Z,1025.4
2023-05-09T06:27:01.534Z,1025.4
2023-05-09T06:28:02.599Z,1025.4
2023-05-09T06:29:02.716Z,1025.4
2023-05-09T06:30:26.571Z,1025.4
2023-05-09T06:31:01.637Z,1025.3
2023-05-09T06:32:02.478Z,1025.4
2023-05-09T06:33:02.896Z,1025.3
2023-05-09T06:34:02.515Z,1025.3
2023-05-09T06:35:02.577Z,1025.4
2023-05-09T06:36:02.439Z,1025.4
2023-05-09T06:37:02.569Z,1025.4
2023-05-09T06:38:02.382Z,1025.4
2023-05-09T06:39:02.443Z,1025.3
2023-05-09T06:40:02.370Z,1025.3
2023-05-09T06:41:02.416Z,1025.3
2023-05-09T06:42:02.307Z,1025.3
2023-05-09T06:43:02.192Z,1025.3
2023-05-09T06:44:02.234Z,1025.3
2023-05-09T06:45:02.474Z,1025.3
2023-05-09T06:46:02.374Z,1025.2
2023-05-09T06:47:02.299Z,1025.2
2023-05-09T06:48:02.518Z,1025.2
2023-05-09T06:49:02.409Z,1025.2
2023-05-09T06:50:02.210Z,1025.2
2023-05-09T06:51:02.221Z,1025.2
2023-05-09T06:52:02.183Z,1025.2
2023-05-09T06:53:02.105Z,1025.2
2023-05-09T06:54:02.050Z,1025.2
2023-05-09T06:55:02.226Z,1025.2
2023-05-09T06:56:01.815Z,1025.3
2023-05-09T06:57:01.848Z,1025.2
2023-05-09T06:58:01.752Z,1025.2
2023-05-09T06:59:01.735Z,1025.2
2023-05-09T07:00:02.824Z,1025.1
2023-05-09T07:01:02.705Z,1025.1
2023-05-09T07:02:02.658Z,1025.1
2023-05-09T07:03:02.518Z,1025.1
2023-05-09T07:04:02.499Z,1025.1
2023-05-09T07:05:02.494Z,1025
2023-05-09T07:06:02.250Z,1025
2023-05-09T07:07:02.206Z,1025.2
2023-05-09T07:08:02.077Z,1025
2023-05-09T07:09:02.122Z,1025
2023-05-09T07:10:12.547Z,1025
2023-05-09T07:11:01.958Z,1025.1
2023-05-09T07:12:02.058Z,1024.9
2023-05-09T07:13:01.922Z,1025
2023-05-09T07:14:01.999Z,1025
2023-05-09T07:15:01.796Z,1024.9
2023-05-09T07:16:01.890Z,1024.9
2023-05-09T07:17:24.216Z,1025
2023-05-09T07:18:02.051Z,1025
2023-05-09T07:19:01.951Z,1025
2023-05-09T07:20:01.869Z,1025
2023-05-09T07:21:01.898Z,1024.9
2023-05-09T07:22:01.711Z,1024.9
2023-05-09T07:23:02.073Z,1024.9
2023-05-09T07:24:01.712Z,1024.9
2023-05-09T07:25:01.812Z,1024.8
2023-05-09T07:26:01.669Z,1024.9
2023-05-09T07:27:01.685Z,1024.9
2023-05-09T07:28:02.674Z,1024.9
2023-05-09T07:29:02.506Z,1024.9
2023-05-09T07:30:02.325Z,1024.9
2023-05-09T07:31:02.251Z,1024.9
2023-05-09T07:32:02.276Z,1024.9
2023-05-09T07:33:02.403Z,1025
2023-05-09T07:34:02.066Z,1024.9
2023-05-09T07:35:02.120Z,1024.8
2023-05-09T07:36:01.921Z,1024.8
2023-05-09T07:37:01.980Z,1024.9
2023-05-09T07:38:02.094Z,1024.8
2023-05-09T07:39:02.181Z,1024.9
2023-05-09T07:40:02.049Z,1024.8
2023-05-09T07:41:02.082Z,1024.9
2023-05-09T07:42:01.896Z,1024.8
2023-05-09T07:43:02.031Z,1024.9
2023-05-09T07:44:01.822Z,1024.9
2023-05-09T07:45:01.787Z,1024.9
2023-05-09T07:46:01.771Z,1024.9
2023-05-09T07:47:01.933Z,1024.8
2023-05-09T07:48:02.121Z,1024.7
2023-05-09T07:49:01.844Z,1024.8
2023-05-09T07:50:01.916Z,1024.7
2023-05-09T07:51:01.842Z,1024.9
2023-05-09T07:52:01.831Z,1024.8
2023-05-09T07:53:01.752Z,1024.8
2023-05-09T07:54:01.774Z,1024.7
2023-05-09T07:55:01.618Z,1024.7
2023-05-09T07:56:02.699Z,1024.8
2023-05-09T07:57:02.591Z,1024.9
2023-05-09T07:58:02.609Z,1024.8
2023-05-09T07:59:02.535Z,1024.6
2023-05-09T08:00:03.177Z,1024.8
2023-05-09T08:01:02.034Z,1024.8
2023-05-09T08:02:02.411Z,1024.8
2023-05-09T08:03:02.781Z,1024.8
2023-05-09T08:04:03.000Z,1024.8
2023-05-09T08:05:01.721Z,1024.8
2023-05-09T08:06:01.654Z,1024.9
2023-05-09T08:07:02.695Z,1024.9
2023-05-09T08:08:02.498Z,1024.8
2023-05-09T08:09:02.595Z,1024.7
2023-05-09T08:10:02.459Z,1024.8
2023-05-09T08:11:02.488Z,1024.7
2023-05-09T08:12:02.378Z,1024.6
2023-05-09T08:13:02.718Z,1024.6
2023-05-09T08:14:02.495Z,1024.7
2023-05-09T08:15:02.358Z,1024.6
2023-05-09T08:16:02.604Z,1024.6
2023-05-09T08:17:02.440Z,1024.7
2023-05-09T08:18:02.584Z,1024.7
2023-05-09T08:19:02.336Z,1024.7
2023-05-09T08:20:02.356Z,1024.7
2023-05-09T08:21:02.168Z,1024.6
2023-05-09T08:22:02.203Z,1024.7
2023-05-09T08:23:02.019Z,1024.6
2023-05-09T08:24:02.025Z,1024.6
2023-05-09T08:25:01.971Z,1024.6
2023-05-09T08:26:02.000Z,1024.7
2023-05-09T08:27:01.834Z,1024.6
2023-05-09T08:28:01.905Z,1024.5
2023-05-09T08:29:01.804Z,1024.5
2023-05-09T08:30:01.920Z,1024.5
2023-05-09T08:31:01.781Z,1024.5
2023-05-09T08:32:01.785Z,1024.5
2023-05-09T08:33:01.990Z,1024.5
2023-05-09T08:34:01.658Z,1024.5
2023-05-09T08:35:01.940Z,1024.5
2023-05-09T08:36:01.710Z,1024.7
2023-05-09T08:37:02.605Z,1024.6
2023-05-09T08:38:02.523Z,1024.5
2023-05-09T08:39:02.642Z,1024.6
2023-05-09T08:40:02.510Z,1024.6
2023-05-09T08:41:02.546Z,1024.5
2023-05-09T08:42:02.557Z,1024.5
2023-05-09T08:43:02.676Z,1024.5
2023-05-09T08:44:02.461Z,1024.5
2023-05-09T08:45:02.546Z,1024.5
2023-05-09T08:46:02.532Z,1024.5
2023-05-09T08:47:02.495Z,1024.5
2023-05-09T08:48:02.412Z,1024.4
2023-05-09T08:49:02.305Z,1024.5
2023-05-09T08:50:02.193Z,1024.5
2023-05-09T08:51:02.270Z,1024.5
2023-05-09T08:52:02.279Z,1024.6
2023-05-09T08:53:02.088Z,1024.5
2023-05-09T08:54:02.183Z,1024.5
2023-05-09T08:55:02.142Z,1024.5
2023-05-09T08:56:02.095Z,1024.4
2023-05-09T08:57:01.932Z,1024.4
2023-05-09T08:58:01.985Z,1024.3
2023-05-09T08:59:01.940Z,1024.4
2023-05-09T09:00:03.113Z,1024.3
2023-05-09T09:01:02.034Z,1024.3
2023-05-09T09:02:01.708Z,1024.4
2023-05-09T09:03:02.854Z,1024.3
2023-05-09T09:04:02.506Z,1024.4
2023-05-09T09:05:02.712Z,1024.4
2023-05-09T09:06:02.484Z,1024.4
2023-05-09T09:07:02.613Z,1024.3
2023-05-09T09:08:02.495Z,1024.4
2023-05-09T09:09:02.605Z,1024.5
2023-05-09T09:10:02.543Z,1024.4
2023-05-09T09:11:02.612Z,1024.4
2023-05-09T09:12:02.464Z,1024.4
2023-05-09T09:13:02.643Z,1024.4
2023-05-09T09:14:02.403Z,1024.4
2023-05-09T09:15:02.475Z,1024.5
2023-05-09T09:16:02.477Z,1024.5
2023-05-09T09:17:02.256Z,1024.5
2023-05-09T09:18:02.413Z,1024.5
2023-05-09T09:19:02.387Z,1024.5
2023-05-09T09:20:02.090Z,1024.4
2023-05-09T09:21:02.068Z,1024.5
2023-05-09T09:22:02.010Z,1024.5
2023-05-09T09:23:01.971Z,1024.4
2023-05-09T09:24:01.869Z,1024.6
2023-05-09T09:25:01.957Z,1024.4
2023-05-09T09:26:02.085Z,1024.4
2023-05-09T09:27:01.856Z,1024.5
2023-05-09T09:28:01.733Z,1024.5
2023-05-09T09:29:01.787Z,1024.4
2023-05-09T09:30:01.653Z,1024.4
2023-05-09T09:31:02.651Z,1024.4
2023-05-09T09:32:02.575Z,1024.3
2023-05-09T09:33:02.506Z,1024.4
2023-05-09T09:34:02.388Z,1024.3
2023-05-09T09:35:02.237Z,1024.3
2023-05-09T09:36:02.292Z,1024.3
2023-05-09T09:37:02.265Z,1024.3
2023-05-09T09:38:02.209Z,1024.4
2023-05-09T09:39:02.228Z,1024.4
2023-05-09T09:40:02.240Z,1024.4
2023-05-09T09:41:02.031Z,1024.3
2023-05-09T09:42:02.051Z,1024.4
2023-05-09T09:43:01.987Z,1024.4
2023-05-09T09:44:01.966Z,1024.4
2023-05-09T09:45:01.858Z,1024.4
2023-05-09T09:46:01.904Z,1024.4
2023-05-09T09:47:01.771Z,1024.3
2023-05-09T09:48:01.916Z,1024.3
2023-05-09T09:49:01.699Z,1024.2
2023-05-09T09:50:01.773Z,1024.2
2023-05-09T09:51:02.639Z,1024.3
2023-05-09T09:52:02.567Z,1024.2
2023-05-09T09:53:02.619Z,1024.2
2023-05-09T09:54:02.483Z,1024.2
2023-05-09T09:55:02.606Z,1024.2
2023-05-09T09:56:02.459Z,1024.2
2023-05-09T09:57:02.564Z,1024.2
2023-05-09T09:58:02.429Z,1024.2
2023-05-09T09:59:02.508Z,1024.2
2023-05-09T10:00:02.424Z,1024.2
2023-05-09T10:01:02.503Z,1024.2
2023-05-09T10:02:08.594Z,1024.2
2023-05-09T10:03:02.494Z,1024.3
2023-05-09T10:04:02.445Z,1024.2
2023-05-09T10:05:02.247Z,1024.1
2023-05-09T10:06:02.077Z,1024.1
2023-05-09T10:07:02.132Z,1024.3
2023-05-09T10:08:02.013Z,1024.1
2023-05-09T10:09:02.092Z,1024.1
2023-05-09T10:10:01.964Z,1024
2023-05-09T10:11:01.911Z,1024
2023-05-09T10:12:01.846Z,1024.1
2023-05-09T10:13:01.986Z,1024
2023-05-09T10:14:01.700Z,1024
2023-05-09T10:15:01.820Z,1024
2023-05-09T10:16:01.953Z,1024
2023-05-09T10:17:02.248Z,1024
2023-05-09T10:18:02.631Z,1023.9
2023-05-09T10:19:02.478Z,1023.9
2023-05-09T10:20:02.334Z,1023.9
2023-05-09T10:21:02.288Z,1024.1
2023-05-09T10:22:02.226Z,1024.1
2023-05-09T10:23:02.122Z,1024
2023-05-09T10:24:02.164Z,1024
2023-05-09T10:25:02.027Z,1024
2023-05-09T10:26:02.006Z,1024
2023-05-09T10:27:01.951Z,1024.1
2023-05-09T10:28:01.996Z,1024
2023-05-09T10:29:01.860Z,1023.9
2023-05-09T10:30:01.843Z,1023.9
2023-05-09T10:31:01.727Z,1023.9
2023-05-09T10:32:02.502Z,1024.1
2023-05-09T10:33:02.684Z,1024
2023-05-09T10:34:02.417Z,1023.9
2023-05-09T10:35:02.432Z,1023.8
2023-05-09T10:36:02.361Z,1024
2023-05-09T10:37:02.426Z,1023.8
2023-05-09T10:38:02.437Z,1024
2023-05-09T10:39:02.472Z,1024
2023-05-09T10:40:02.339Z,1023.9
2023-05-09T10:41:02.434Z,1023.9
2023-05-09T10:42:02.420Z,1023.8
2023-05-09T10:43:02.412Z,1023.8
2023-05-09T10:44:02.368Z,1023.7
2023-05-09T10:45:02.339Z,1023.5
2023-05-09T10:46:02.269Z,1023.7
2023-05-09T10:47:02.564Z,1023.8
2023-05-09T10:48:02.473Z,1023.7
2023-05-09T10:49:02.351Z,1023.8
2023-05-09T10:50:02.291Z,1023.8
2023-05-09T10:51:02.341Z,1023.7
2023-05-09T10:52:01.859Z,1023.8
2023-05-09T10:53:01.893Z,1023.6
2023-05-09T10:54:01.755Z,1023.6
2023-05-09T10:55:01.834Z,1023.8
2023-05-09T10:56:01.680Z,1023.7
2023-05-09T10:57:01.717Z,1023.7
2023-05-09T10:58:02.689Z,1023.7
2023-05-09T10:59:02.596Z,1023.7
2023-05-09T11:00:02.662Z,1023.8
2023-05-09T11:01:02.493Z,1023.7
2023-05-09T11:02:02.665Z,1023.7
2023-05-09T11:03:02.701Z,1023.7
2023-05-09T11:04:02.496Z,1023.6
2023-05-09T11:05:02.370Z,1023.5
2023-05-09T11:06:02.348Z,1023.7
2023-05-09T11:07:02.212Z,1023.7
2023-05-09T11:08:02.243Z,1023.5
2023-05-09T11:09:02.236Z,1023.6
2023-05-09T11:10:02.093Z,1023.5
2023-05-09T11:11:02.141Z,1023.5
2023-05-09T11:12:01.982Z,1023.4
2023-05-09T11:13:02.149Z,1023.5
2023-05-09T11:14:01.876Z,1023.5
2023-05-09T11:15:01.967Z,1023.5
2023-05-09T11:16:02.042Z,1023.4
2023-05-09T11:17:02.117Z,1023.4
2023-05-09T11:18:02.237Z,1023.4
2023-05-09T11:19:01.970Z,1023.4
2023-05-09T11:20:02.070Z,1023.4
2023-05-09T11:21:01.837Z,1023.5
2023-05-09T11:22:01.905Z,1023.4
2023-05-09T11:23:01.739Z,1023.4
2023-05-09T11:24:01.879Z,1023.4
2023-05-09T11:25:01.666Z,1023.4
2023-05-09T11:26:01.747Z,1023.3
2023-05-09T11:27:02.689Z,1023.4
2023-05-09T11:28:02.578Z,1023.3
2023-05-09T11:29:02.608Z,1023.4
2023-05-09T11:30:02.548Z,1023.3
2023-05-09T11:31:02.618Z,1023.3
2023-05-09T11:32:02.337Z,1023.3
2023-05-09T11:33:02.462Z,1023.3
2023-05-09T11:34:02.382Z,1023.4
2023-05-09T11:35:02.139Z,1023.3
2023-05-09T11:36:02.247Z,1023.4
2023-05-09T11:37:02.227Z,1023.2
2023-05-09T11:38:02.067Z,1023.3
2023-05-09T11:39:02.143Z,1023.2
2023-05-09T11:40:02.008Z,1023.3
2023-05-09T11:41:01.961Z,1023.2
2023-05-09T11:42:01.817Z,1023.2
2023-05-09T11:43:01.891Z,1023.1
2023-05-09T11:44:01.790Z,1023.1
2023-05-09T11:45:01.774Z,1023.2
2023-05-09T11:46:01.775Z,1023.2
2023-05-09T11:47:01.679Z,1023.1
2023-05-09T11:48:02.056Z,1023.1
2023-05-09T11:49:01.783Z,1023
2023-05-09T11:50:01.661Z,1023
2023-05-09T11:51:02.291Z,1023
2023-05-09T11:52:02.140Z,1022.9
2023-05-09T11:53:02.280Z,1022.9
2023-05-09T11:54:02.073Z,1023
2023-05-09T11:55:02.100Z,1023
2023-05-09T11:56:01.992Z,1023
2023-05-09T11:57:02.072Z,1022.9
2023-05-09T11:58:01.923Z,1022.9
2023-05-09T11:59:01.978Z,1022.9
2023-05-09T12:00:01.857Z,1022.9
2023-05-09T12:01:01.826Z,1022.9
2023-05-09T12:02:02.807Z,1022.8
2023-05-09T12:03:02.716Z,1022.9
2023-05-09T12:04:03.029Z,1022.9
2023-05-09T12:05:01.730Z,1022.9
2023-05-09T12:06:01.726Z,1022.8
2023-05-09T12:07:01.679Z,1022.8
2023-05-09T12:08:01.662Z,1022.8
2023-05-09T12:09:02.570Z,1022.8
2023-05-09T12:10:02.558Z,1022.8
2023-05-09T12:11:02.567Z,1022.8
2023-05-09T12:12:02.501Z,1022.8
2023-05-09T12:13:02.598Z,1022.8
2023-05-09T12:14:02.360Z,1022.8
2023-05-09T12:15:02.396Z,1022.8
2023-05-09T12:16:02.524Z,1022.8
2023-05-09T12:18:02.091Z,1022.8
2023-05-09T12:19:01.837Z,1022.7
2023-05-09T12:20:01.949Z,1022.7
2023-05-09T12:21:01.676Z,1022.7
2023-05-09T12:22:01.689Z,1022.8
2023-05-09T12:23:01.557Z,1022.7
2023-05-09T12:24:02.612Z,1022.7
2023-05-09T12:25:02.505Z,1022.7
2023-05-09T12:26:02.548Z,1022.7
2023-05-09T12:27:02.454Z,1022.7
2023-05-09T12:28:02.537Z,1022.7
2023-05-09T12:29:02.390Z,1022.6
2023-05-09T12:30:02.548Z,1022.5
2023-05-09T12:31:02.382Z,1022.7
2023-05-09T12:32:02.411Z,1022.6
2023-05-09T12:33:02.541Z,1022.6
2023-05-09T12:34:02.401Z,1022.7
2023-05-09T12:35:02.236Z,1022.7
2023-05-09T12:36:02.255Z,1022.6
2023-05-09T12:37:02.238Z,1022.7
2023-05-09T12:38:02.132Z,1022.6
2023-05-09T12:39:02.199Z,1022.6
2023-05-09T12:40:02.496Z,1022.5